Time;durP1;ratioP1;P1;durP2;ratioP2;P2;SDS_P1;SDS_P2;PMS_P1;PMS_P2;Temp;Humidity;BMP_temperature;BMP_pressure;BME280_temperature;BME280_humidity;BME280_pressure;Samples;Min_cycle;Max_cycle;Signal;HPM_P1;HPM_P2
2023/06/06 00:01:25;;;;;;;12.52;8.20;;;;;;;13.94;90.45;101979.81;5032902;28;20072;-69
2023/06/06 00:03:51;;;;;;;14.30;8.15;;;;;;;13.88;91.00;101976.44;5032777;28;20040;-69
2023/06/06 00:06:20;;;;;;;15.10;8.75;;;;;;;13.88;90.20;101979.91;5032977;28;20033;-69
2023/06/06 00:08:46;;;;;;;13.73;8.60;;;;;;;13.81;90.50;101981.78;5027372;28;20060;-69
2023/06/06 00:11:11;;;;;;;14.18;8.57;;;;;;;13.78;91.15;101984.47;5031408;28;20092;-69
2023/06/06 00:13:36;;;;;;;13.27;8.93;;;;;;;13.72;90.64;101983.72;5027171;28;20030;-69
2023/06/06 00:16:03;;;;;;;13.75;8.52;;;;;;;13.65;90.56;101980.34;5030512;28;20026;-69
2023/06/06 00:18:28;;;;;;;14.52;8.93;;;;;;;13.69;90.30;101982.00;5031144;28;20022;-69
2023/06/06 00:20:54;;;;;;;15.77;8.10;;;;;;;13.63;90.58;101974.25;5032624;28;20099;-69
2023/06/06 00:23:21;;;;;;;11.32;8.35;;;;;;;13.62;91.89;101980.41;5031987;28;20135;-69
2023/06/06 00:25:48;;;;;;;12.80;8.35;;;;;;;13.57;91.46;101979.63;5026660;28;20386;-69
2023/06/06 00:28:13;;;;;;;13.80;8.57;;;;;;;13.52;91.37;101973.59;5030817;28;21674;-69
2023/06/06 00:30:38;;;;;;;12.65;8.25;;;;;;;13.52;92.53;101977.09;5030478;28;20025;-69
2023/06/06 00:33:04;;;;;;;14.20;8.38;;;;;;;13.45;92.17;101982.47;5032082;28;20030;-69
2023/06/06 00:35:29;;;;;;;15.70;8.73;;;;;;;13.29;92.46;101980.09;5032473;28;20024;-69
2023/06/06 00:37:55;;;;;;;13.13;8.23;;;;;;;13.28;93.22;101986.22;5028434;28;20024;-69
2023/06/06 00:40:20;;;;;;;13.75;8.32;;;;;;;13.30;93.27;101981.81;5025057;28;20576;-69
2023/06/06 00:42:45;;;;;;;14.32;8.35;;;;;;;13.28;93.69;101978.38;5028053;28;20022;-69
2023/06/06 00:45:11;;;;;;;11.50;8.55;;;;;;;13.26;93.80;101984.53;5031847;28;20037;-69
2023/06/06 00:47:36;;;;;;;12.75;8.32;;;;;;;13.22;92.74;101982.81;5032285;28;20044;-69
2023/06/06 00:50:02;;;;;;;14.52;8.88;;;;;;;13.19;93.10;101980.25;5031479;28;20060;-69
2023/06/06 00:52:28;;;;;;;14.32;8.77;;;;;;;13.15;93.61;101974.19;5032196;28;20021;-69
2023/06/06 00:54:53;;;;;;;13.95;8.43;;;;;;;13.08;93.83;101985.66;5032008;28;20022;-69
2023/06/06 00:57:20;;;;;;;14.40;8.80;;;;;;;13.03;93.88;101985.72;5032014;28;20029;-69
2023/06/06 00:59:45;;;;;;;13.82;8.82;;;;;;;13.04;94.09;101969.13;5031554;28;20025;-69
2023/06/06 01:02:17;;;;;;;14.13;8.55;;;;;;;12.96;94.36;101981.47;5032162;28;20120;-69
2023/06/06 01:04:43;;;;;;;12.23;8.60;;;;;;;12.91;94.45;101970.19;5026476;28;20388;-69
2023/06/06 01:07:09;;;;;;;13.65;9.43;;;;;;;12.91;94.11;101974.56;5031964;28;20104;-69
2023/06/06 01:09:36;;;;;;;12.15;8.63;;;;;;;12.88;94.53;101972.84;5031845;28;20037;-69
2023/06/06 01:12:13;;;;;;;13.75;8.45;;;;;;;12.92;94.98;101974.56;5031982;28;20037;-69
2023/06/06 01:15:13;;;;;;;14.25;8.50;;;;;;;12.91;93.99;101972.81;5031330;28;20059;-69
2023/06/06 01:17:41;;;;;;;14.85;8.75;;;;;;;12.88;94.76;101981.59;5030104;28;20033;-69
2023/06/06 01:20:09;;;;;;;14.82;8.82;;;;;;;12.73;94.99;101979.19;5032273;28;20037;-69
2023/06/06 01:22:36;;;;;;;14.25;8.52;;;;;;;12.69;95.51;101976.63;5031740;28;20029;-69
2023/06/06 01:25:02;;;;;;;14.00;8.57;;;;;;;12.67;95.38;101983.66;5031440;28;20049;-69
2023/06/06 01:27:28;;;;;;;13.15;9.05;;;;;;;12.59;95.45;101973.31;5031452;28;20480;-69
2023/06/06 01:29:53;;;;;;;14.27;8.77;;;;;;;12.56;96.04;101978.56;5031822;28;20034;-69
2023/06/06 01:32:22;;;;;;;15.35;8.65;;;;;;;12.54;95.97;101972.47;5031703;28;20405;-69
2023/06/06 01:35:00;;;;;;;13.55;8.65;;;;;;;12.50;96.49;101978.66;5031075;28;20033;-69
2023/06/06 01:37:33;;;;;;;15.65;8.32;;;;;;;12.45;96.33;101978.69;5032033;28;20037;-69
2023/06/06 01:40:04;;;;;;;13.60;9.35;;;;;;;12.41;96.82;101974.41;5029574;28;20136;-69
2023/06/06 01:42:30;;;;;;;17.92;8.57;;;;;;;12.37;97.13;101976.19;5037006;28;20051;-69
2023/06/06 01:44:58;;;;;;;15.07;9.07;;;;;;;12.34;97.62;101980.59;5026332;28;20068;-69
2023/06/06 01:47:24;;;;;;;15.07;8.75;;;;;;;12.27;98.13;101990.25;5031752;28;20384;-69
2023/06/06 01:49:50;;;;;;;12.52;8.70;;;;;;;12.25;98.82;101976.34;5028184;28;20069;-69
2023/06/06 01:52:16;;;;;;;15.52;9.15;;;;;;;12.17;98.56;101979.06;5031886;28;20489;-69
2023/06/06 01:54:41;;;;;;;16.20;8.93;;;;;;;12.11;98.29;101979.13;5030063;28;20504;-69
2023/06/06 01:57:10;;;;;;;17.35;9.20;;;;;;;12.03;99.23;101975.72;5030656;28;20032;-69
2023/06/06 01:59:37;;;;;;;13.68;8.45;;;;;;;12.08;99.38;101983.53;5030388;28;20056;-69
2023/06/06 02:02:02;;;;;;;15.73;8.98;;;;;;;12.07;99.46;101987.03;5030511;28;20065;-69
2023/06/06 02:04:27;;;;;;;14.52;9.32;;;;;;;12.10;98.80;101985.25;5029424;28;20065;-69
2023/06/06 02:06:52;;;;;;;16.77;8.80;;;;;;;12.05;98.59;101984.41;5029346;28;20079;-69
2023/06/06 02:09:18;;;;;;;15.55;8.18;;;;;;;12.06;98.99;101982.66;5030238;28;20044;-69
2023/06/06 02:11:43;;;;;;;12.23;8.35;;;;;;;11.93;99.23;101964.53;5027898;28;20033;-69
2023/06/06 02:14:09;;;;;;;14.77;8.93;;;;;;;11.89;99.83;101986.31;5033512;28;20473;-69
2023/06/06 02:16:36;;;;;;;15.40;8.48;;;;;;;11.87;99.73;101982.88;5032133;28;20040;-69
2023/06/06 02:19:02;;;;;;;16.10;9.07;;;;;;;11.83;99.95;101986.34;5028067;28;20534;-69
2023/06/06 02:21:27;;;;;;;14.25;8.30;;;;;;;11.65;100.00;101963.06;5035373;28;20044;-69
2023/06/06 02:23:53;;;;;;;14.68;8.93;;;;;;;11.78;100.00;101980.34;5034501;28;20432;-69
2023/06/06 02:26:18;;;;;;;16.20;9.20;;;;;;;11.83;100.00;101985.50;5035191;28;20021;-69
2023/06/06 02:28:43;;;;;;;13.68;8.98;;;;;;;11.73;100.00;101985.59;5034679;28;20032;-69
2023/06/06 02:31:11;;;;;;;14.25;8.45;;;;;;;11.73;100.00;101987.34;5034451;28;20029;-69
2023/06/06 02:33:36;;;;;;;13.63;8.88;;;;;;;11.77;100.00;101990.78;5034739;28;20085;-69
2023/06/06 02:36:02;;;;;;;14.60;8.80;;;;;;;11.75;100.00;101992.56;5039264;28;20025;-69
2023/06/06 02:38:27;;;;;;;15.82;8.80;;;;;;;11.71;100.00;101989.13;5036954;28;20465;-69
2023/06/06 02:40:52;;;;;;;12.98;8.23;;;;;;;11.68;100.00;101978.69;5034142;28;20021;-69
2023/06/06 02:43:18;;;;;;;12.13;8.45;;;;;;;11.60;100.00;101981.34;5032097;28;20501;-69
2023/06/06 02:45:43;;;;;;;12.85;8.45;;;;;;;11.62;100.00;101987.44;5031151;28;20129;-69
2023/06/06 02:48:08;;;;;;;14.65;8.65;;;;;;;11.56;100.00;101981.41;5033917;28;20075;-69
2023/06/06 02:50:34;;;;;;;14.05;8.55;;;;;;;11.48;100.00;101984.97;5032057;28;20073;-69
2023/06/06 02:53:03;;;;;;;12.38;8.30;;;;;;;11.45;100.00;101989.34;5036136;28;20029;-69
2023/06/06 02:55:28;;;;;;;13.63;9.05;;;;;;;11.43;100.00;101984.13;5033135;28;20033;-69
2023/06/06 02:57:54;;;;;;;17.73;9.40;;;;;;;11.41;100.00;101979.78;5034708;28;20082;-69
2023/06/06 03:00:21;;;;;;;16.08;8.50;;;;;;;11.37;100.00;101992.00;5033498;28;20450;-69
2023/06/06 03:02:46;;;;;;;15.30;9.05;;;;;;;11.28;100.00;101979.06;5033848;28;20025;-69
2023/06/06 03:05:12;;;;;;;13.25;8.60;;;;;;;11.29;100.00;101991.22;5033569;28;20037;-69
2023/06/06 03:07:38;;;;;;;13.02;8.90;;;;;;;11.30;100.00;101989.47;5032714;28;20474;-69
2023/06/06 03:10:03;;;;;;;13.45;8.93;;;;;;;11.21;100.00;101987.78;5039404;28;20484;-69
2023/06/06 03:12:29;;;;;;;15.05;8.98;;;;;;;11.21;100.00;101985.19;5034131;28;20030;-69
2023/06/06 03:14:54;;;;;;;15.93;8.77;;;;;;;11.16;100.00;101990.44;5027770;28;20570;-69
2023/06/06 03:17:19;;;;;;;14.20;8.57;;;;;;;11.15;100.00;101982.63;5032953;28;20104;-69
2023/06/06 03:19:48;;;;;;;15.32;8.95;;;;;;;11.10;100.00;101989.63;5031715;28;20034;-69
2023/06/06 03:22:15;;;;;;;14.45;8.95;;;;;;;11.05;100.00;101989.66;5033340;28;20122;-69
2023/06/06 03:24:40;;;;;;;14.73;8.57;;;;;;;11.11;100.00;101988.75;5039738;28;20083;-69
2023/06/06 03:27:06;;;;;;;15.57;9.02;;;;;;;11.02;100.00;101974.91;5031652;28;20029;-69
2023/06/06 03:29:32;;;;;;;13.75;8.88;;;;;;;11.09;100.00;101985.31;5026659;28;20396;-69
2023/06/06 03:31:57;;;;;;;16.98;8.63;;;;;;;11.06;100.00;101985.31;5024327;28;20040;-69
2023/06/06 03:34:25;;;;;;;14.13;8.80;;;;;;;11.06;100.00;101980.09;5033467;28;20536;-69
2023/06/06 03:36:52;;;;;;;12.43;8.32;;;;;;;11.05;100.00;101980.97;5033287;28;20030;-69
2023/06/06 03:39:17;;;;;;;14.65;8.82;;;;;;;11.03;100.00;101988.81;5030736;28;20022;-69
2023/06/06 03:41:42;;;;;;;16.45;9.27;;;;;;;10.98;100.00;101986.22;5031110;28;20469;-69
2023/06/06 03:44:08;;;;;;;13.30;9.05;;;;;;;10.92;100.00;101985.41;5023981;28;20104;-69
2023/06/06 03:46:34;;;;;;;14.20;8.57;;;;;;;10.95;100.00;101990.59;5028140;28;20444;-68
2023/06/06 03:49:00;;;;;;;14.68;9.07;;;;;;;10.91;100.00;101988.88;5032542;28;20045;-69
2023/06/06 03:51:26;;;;;;;17.67;8.55;;;;;;;10.85;100.00;101981.09;5033394;28;20037;-69
2023/06/06 03:53:51;;;;;;;15.07;8.75;;;;;;;10.85;100.00;101992.41;5032995;28;20060;-68
2023/06/06 03:56:16;;;;;;;13.98;8.40;;;;;;;10.95;100.00;101990.59;5031397;28;20068;-69
2023/06/06 03:58:41;;;;;;;14.45;8.57;;;;;;;10.94;100.00;101992.34;5032868;28;20021;-69
2023/06/06 04:01:07;;;;;;;15.82;9.27;;;;;;;10.90;100.00;101976.72;5033334;28;20037;-69
2023/06/06 04:03:36;;;;;;;14.40;8.98;;;;;;;11.00;100.00;101999.28;5029377;28;20108;-69
2023/06/06 04:06:04;;;;;;;16.42;8.98;;;;;;;11.01;100.00;102001.84;5032948;28;20033;-69
2023/06/06 04:08:30;;;;;;;13.65;8.52;;;;;;;11.01;100.00;101996.63;5033191;28;20025;-69
2023/06/06 04:10:55;;;;;;;15.38;8.98;;;;;;;11.02;100.00;101987.94;5032338;28;20044;-69
2023/06/06 04:13:20;;;;;;;16.38;9.10;;;;;;;10.97;100.00;101988.84;5032984;28;20051;-69
2023/06/06 04:15:45;;;;;;;14.40;8.85;;;;;;;11.05;100.00;101999.22;5030651;28;20099;-69
2023/06/06 04:18:12;;;;;;;16.10;9.18;;;;;;;11.07;100.00;102000.09;5032694;28;20034;-69
2023/06/06 04:20:37;;;;;;;13.65;8.80;;;;;;;11.10;100.00;102000.94;5032392;28;20034;-69
2023/06/06 04:23:02;;;;;;;13.32;8.90;;;;;;;11.11;100.00;102005.25;5033046;28;20032;-69
2023/06/06 04:25:28;;;;;;;14.30;8.77;;;;;;;11.07;100.00;101989.66;5032332;28;20022;-69
2023/06/06 04:27:53;;;;;;;14.85;8.48;;;;;;;11.12;100.00;101995.72;5032517;28;20043;-69
2023/06/06 04:30:22;;;;;;;14.68;9.23;;;;;;;11.08;100.00;101997.47;5032498;28;20029;-69
2023/06/06 04:32:48;;;;;;;13.48;8.60;;;;;;;11.14;100.00;102000.03;5031976;28;20481;-69
2023/06/06 04:35:14;;;;;;;14.13;8.85;;;;;;;11.15;100.00;101995.66;5032083;28;20113;-69
2023/06/06 04:37:40;;;;;;;16.90;9.30;;;;;;;11.21;100.00;102006.06;5032193;28;20377;-68
2023/06/06 04:40:07;;;;;;;14.95;9.18;;;;;;;11.22;100.00;101994.78;5032323;28;20043;-69
2023/06/06 04:42:35;;;;;;;14.63;8.68;;;;;;;11.28;100.00;101999.94;5032879;28;20061;-69
2023/06/06 04:45:05;;;;;;;15.73;8.82;;;;;;;11.35;100.00;101996.41;5031715;28;20036;-69
2023/06/06 04:47:32;;;;;;;17.10;8.82;;;;;;;11.36;100.00;101997.25;5032540;28;20048;-69
2023/06/06 04:49:58;;;;;;;15.75;8.98;;;;;;;11.39;100.00;101992.88;5032057;28;20561;-69
2023/06/06 04:52:23;;;;;;;13.05;8.77;;;;;;;11.36;100.00;101987.69;5029273;28;20158;-69
2023/06/06 04:54:51;;;;;;;19.45;9.52;;;;;;;11.39;100.00;101995.50;5032220;28;20061;-69
2023/06/06 04:57:17;;;;;;;15.43;8.85;;;;;;;11.36;100.00;101992.91;5032209;28;20115;-69
2023/06/06 04:59:53;;;;;;;18.25;9.23;;;;;;;11.37;100.00;101992.00;5031606;28;20104;-69
2023/06/06 05:02:22;;;;;;;14.88;9.20;;;;;;;11.51;100.00;102004.09;5031955;28;20473;-69
2023/06/06 05:04:54;;;;;;;15.10;8.15;;;;;;;11.61;100.00;101997.94;5031640;28;20021;-69
2023/06/06 05:07:23;;;;;;;14.95;8.75;;;;;;;11.61;100.00;102003.16;5037059;28;20078;-69
2023/06/06 05:09:49;;;;;;;14.43;9.13;;;;;;;11.64;100.00;102003.09;5037909;28;21824;-69
2023/06/06 05:12:14;;;;;;;16.92;9.07;;;;;;;11.71;100.00;102002.19;5020800;28;20097;-69
2023/06/06 05:14:40;;;;;;;14.73;8.50;;;;;;;11.70;100.00;102003.03;5022419;28;20061;-69
2023/06/06 05:17:05;;;;;;;15.77;9.38;;;;;;;11.73;100.00;102011.72;5032129;28;20030;-69
2023/06/06 05:19:31;;;;;;;15.27;9.15;;;;;;;11.73;100.00;102006.47;5031282;28;20428;-69
2023/06/06 05:21:56;;;;;;;16.13;9.63;;;;;;;11.81;99.86;102001.19;5030013;28;20318;-69
2023/06/06 05:24:21;;;;;;;14.48;9.20;;;;;;;11.88;99.50;102008.13;5027212;28;20025;-69
2023/06/06 05:26:47;;;;;;;15.95;9.90;;;;;;;11.86;99.09;102004.66;5030111;28;20036;-69
2023/06/06 05:29:12;;;;;;;15.07;9.32;;;;;;;11.85;99.99;102007.28;5027460;28;20108;-69
2023/06/06 05:31:37;;;;;;;14.85;9.82;;;;;;;11.87;99.07;102011.63;5029522;28;20029;-69
2023/06/06 05:34:03;;;;;;;19.40;10.00;;;;;;;11.83;98.90;102012.47;5031519;28;20429;-69
2023/06/06 05:36:28;;;;;;;16.05;9.60;;;;;;;11.88;99.03;102013.34;5031874;28;20030;-69
2023/06/06 05:38:54;;;;;;;15.63;9.93;;;;;;;11.99;99.00;102017.59;5031562;28;20078;-69
2023/06/06 05:41:20;;;;;;;16.88;10.65;;;;;;;12.06;98.97;102017.50;5035693;28;20034;-69
2023/06/06 05:43:46;;;;;;;17.35;9.60;;;;;;;12.13;98.75;102018.31;5024521;28;20120;-69
2023/06/06 05:46:11;;;;;;;16.58;9.77;;;;;;;12.14;98.64;102002.63;5029225;28;20108;-69
2023/06/06 05:48:37;;;;;;;17.50;10.50;;;;;;;12.23;97.56;102016.44;5030154;28;20037;-69
2023/06/06 05:51:02;;;;;;;16.75;10.05;;;;;;;12.16;97.14;102019.16;5035723;28;20538;-69
2023/06/06 05:53:28;;;;;;;14.85;9.95;;;;;;;12.15;97.50;102012.19;5030889;28;20034;-68
2023/06/06 05:55:53;;;;;;;18.48;10.40;;;;;;;12.16;97.35;102018.25;5032054;28;20044;-69
2023/06/06 05:58:18;;;;;;;17.27;10.13;;;;;;;12.29;97.88;102014.63;5034900;28;20040;-69
2023/06/06 06:00:44;;;;;;;16.13;10.13;;;;;;;12.38;97.47;102019.75;5032298;28;20386;-69
2023/06/06 06:03:10;;;;;;;15.60;10.30;;;;;;;12.48;96.95;102015.28;5035160;28;20474;-69
2023/06/06 06:05:36;;;;;;;16.67;10.25;;;;;;;12.52;95.70;102011.72;5032130;28;20033;-69
2023/06/06 06:08:02;;;;;;;17.90;10.38;;;;;;;12.52;95.50;102008.25;5029688;28;20040;-69
2023/06/06 06:10:29;;;;;;;15.90;10.18;;;;;;;12.59;95.18;102010.78;5031831;28;20496;-69
2023/06/06 06:12:55;;;;;;;15.38;9.63;;;;;;;12.69;95.26;102013.25;5024497;28;20040;-69
2023/06/06 06:15:20;;;;;;;15.70;9.52;;;;;;;12.74;94.92;102009.69;5034557;28;20076;-69
2023/06/06 06:17:46;;;;;;;14.32;10.40;;;;;;;12.76;94.62;102015.78;5033215;28;20021;-68
2023/06/06 06:20:15;;;;;;;18.52;10.48;;;;;;;12.77;94.35;102011.41;5035287;28;20026;-69
2023/06/06 06:22:41;;;;;;;17.23;9.77;;;;;;;12.88;94.83;102014.72;5035190;28;20022;-69
2023/06/06 06:25:12;;;;;;;16.60;9.77;;;;;;;13.02;94.15;102020.66;5034703;28;20384;-68
2023/06/06 06:27:38;;;;;;;17.60;10.77;;;;;;;13.16;93.69;102015.19;5034867;28;20087;-69
2023/06/06 06:30:04;;;;;;;17.75;9.48;;;;;;;13.23;92.86;102016.81;5034528;28;20037;-69
2023/06/06 06:32:31;;;;;;;19.25;10.13;;;;;;;13.25;91.39;102014.22;5037280;28;20029;-68
2023/06/06 06:34:57;;;;;;;16.08;10.25;;;;;;;13.35;92.22;102021.03;5033560;28;20025;-69
2023/06/06 06:37:23;;;;;;;17.55;10.13;;;;;;;13.35;91.16;102021.91;5036679;28;20113;-68
2023/06/06 06:39:49;;;;;;;14.82;9.63;;;;;;;13.36;91.42;102017.53;5034614;28;20025;-69
2023/06/06 06:42:14;;;;;;;16.42;10.35;;;;;;;13.44;92.03;102020.00;5034857;28;20026;-69
2023/06/06 06:44:39;;;;;;;14.75;10.70;;;;;;;13.43;90.94;102028.75;5032243;28;20022;-70
2023/06/06 06:47:05;;;;;;;14.93;10.25;;;;;;;13.40;91.84;102008.72;5032641;28;20033;-75
2023/06/06 06:49:30;;;;;;;18.88;10.50;;;;;;;13.56;93.14;102030.28;5029421;28;20050;-69
2023/06/06 06:51:57;;;;;;;16.73;10.30;;;;;;;13.66;91.77;102029.25;5032141;28;20044;-69
2023/06/06 06:54:24;;;;;;;15.88;10.38;;;;;;;13.73;90.77;102030.00;5034300;28;20033;-69
2023/06/06 06:56:51;;;;;;;14.88;10.23;;;;;;;13.80;90.37;102034.25;5035113;28;20101;-69
2023/06/06 06:59:17;;;;;;;14.10;10.50;;;;;;;13.89;90.21;102028.81;5032957;28;20100;-69
2023/06/06 07:01:47;;;;;;;15.07;10.15;;;;;;;14.00;89.25;102029.50;5033993;28;20029;-69
2023/06/06 07:04:12;;;;;;;16.38;10.57;;;;;;;14.08;89.00;102029.34;5034637;28;20056;-69
2023/06/06 07:06:37;;;;;;;18.20;11.00;;;;;;;14.15;88.89;102032.72;5025211;28;20485;-69
2023/06/06 07:09:05;;;;;;;20.65;9.65;;;;;;;14.21;88.41;102017.72;5030185;28;20041;-69
2023/06/06 07:11:31;;;;;;;14.00;10.05;;;;;;;14.25;88.85;102029.03;5034103;28;20508;-69
2023/06/06 07:13:56;;;;;;;14.60;9.65;;;;;;;14.37;87.94;102036.66;5033484;28;20191;-69
2023/06/06 07:16:23;;;;;;;14.60;10.50;;;;;;;14.42;87.50;102013.81;5035362;28;20116;-76
2023/06/06 07:18:51;;;;;;;17.67;10.82;;;;;;;14.52;86.92;102014.53;5033988;28;20082;-72
2023/06/06 07:21:18;;;;;;;16.73;10.38;;;;;;;14.66;86.77;102032.59;5032019;28;20025;-72
2023/06/06 07:23:43;;;;;;;17.90;10.05;;;;;;;14.70;85.63;102029.84;5027476;28;20470;-73
2023/06/06 07:26:10;;;;;;;15.50;9.55;;;;;;;14.78;84.25;102016.59;5034946;28;20033;-73
2023/06/06 07:28:35;;;;;;;16.88;9.93;;;;;;;14.56;83.78;101989.94;5033703;28;20025;-73
2023/06/06 07:31:02;;;;;;;21.48;10.70;;;;;;;14.83;84.49;102019.94;5033406;28;20385;-73
2023/06/06 07:33:27;;;;;;;15.48;10.23;;;;;;;14.98;85.74;102026.63;5036621;28;20103;-72
2023/06/06 07:35:53;;;;;;;16.85;10.60;;;;;;;15.11;85.78;102022.81;5026691;28;20079;-72
2023/06/06 07:38:18;;;;;;;19.67;9.98;;;;;;;15.20;83.16;102008.59;5034049;28;20025;-71
2023/06/06 07:40:44;;;;;;;15.30;9.85;;;;;;;15.27;81.95;102014.56;5030419;28;20026;-71
2023/06/06 07:43:11;;;;;;;22.30;10.30;;;;;;;15.25;82.22;102011.97;5033339;28;20144;-72
2023/06/06 07:45:36;;;;;;;15.20;9.82;;;;;;;15.31;82.64;102005.72;5029542;28;20024;-72
2023/06/06 07:48:03;;;;;;;17.20;10.18;;;;;;;15.40;82.26;102001.09;5032670;28;20029;-72
2023/06/06 07:50:28;;;;;;;15.38;10.00;;;;;;;15.54;83.24;102002.50;5029532;28;20048;-72
2023/06/06 07:52:53;;;;;;;17.83;10.43;;;;;;;15.63;81.49;102003.13;5033458;28;20025;-71
2023/06/06 07:55:20;;;;;;;15.60;10.65;;;;;;;15.78;82.79;102001.03;5029199;28;20030;-72
2023/06/06 07:57:45;;;;;;;17.90;10.00;;;;;;;15.93;82.42;102005.88;5038990;28;20116;-72
2023/06/06 08:00:12;;;;;;;12.98;9.05;;;;;;;15.99;81.98;102010.97;5030621;28;20104;-72
2023/06/06 08:02:39;;;;;;;16.20;9.63;;;;;;;16.05;80.18;102005.53;5030339;28;20093;-72
2023/06/06 08:05:05;;;;;;;18.13;10.57;;;;;;;16.08;78.08;101997.53;5033420;28;20039;-72
2023/06/06 08:07:32;;;;;;;18.42;10.10;;;;;;;16.14;78.19;101994.75;5030677;28;20025;-73
2023/06/06 08:09:58;;;;;;;14.00;9.90;;;;;;;16.29;79.34;101998.72;5030088;28;20057;-73
2023/06/06 08:12:23;;;;;;;17.15;10.02;;;;;;;16.36;77.32;101995.00;5035639;28;20551;-70
2023/06/06 08:14:48;;;;;;;14.32;9.60;;;;;;;16.34;76.06;101999.44;5032633;28;20041;-69
2023/06/06 08:17:13;;;;;;;16.50;9.98;;;;;;;16.43;76.95;101995.69;5031760;28;20057;-69
2023/06/06 08:19:39;;;;;;;22.00;10.75;;;;;;;16.42;77.55;101991.34;5026448;28;20032;-70
2023/06/06 08:22:06;;;;;;;14.50;9.73;;;;;;;16.49;74.95;102000.75;5031641;28;20044;-69
2023/06/06 08:24:31;;;;;;;18.85;10.68;;;;;;;16.58;76.22;102005.75;5028918;28;20104;-70
2023/06/06 08:26:57;;;;;;;15.57;9.95;;;;;;;16.74;75.60;101997.38;5032077;28;20152;-70
2023/06/06 08:29:22;;;;;;;13.52;9.15;;;;;;;16.93;76.17;102001.19;5032348;28;20030;-70
2023/06/06 08:31:47;;;;;;;14.80;9.85;;;;;;;16.99;75.38;102003.63;5032361;28;20033;-70
2023/06/06 08:34:13;;;;;;;15.73;9.57;;;;;;;17.05;74.75;101990.28;5032935;28;20546;-70
2023/06/06 08:36:38;;;;;;;16.13;9.52;;;;;;;17.17;73.53;101993.44;5032150;28;20032;-70
2023/06/06 08:39:06;;;;;;;18.02;10.55;;;;;;;17.25;75.30;101986.13;5032629;28;20025;-70
2023/06/06 08:41:33;;;;;;;14.20;9.50;;;;;;;17.47;72.99;101987.13;5032908;28;20033;-69
2023/06/06 08:44:01;;;;;;;14.15;9.98;;;;;;;17.57;72.74;101992.09;5031874;28;20036;-70
2023/06/06 08:46:31;;;;;;;15.15;9.38;;;;;;;17.69;73.53;101997.81;5032551;28;20036;-69
2023/06/06 08:48:59;;;;;;;16.25;9.70;;;;;;;17.71;70.81;101989.81;5031969;28;20042;-70
2023/06/06 08:51:27;;;;;;;12.68;9.70;;;;;;;17.75;69.70;101994.06;5021475;28;20088;-70
2023/06/06 08:53:53;;;;;;;18.10;10.30;;;;;;;17.74;71.21;101990.56;5031829;28;20072;-70
2023/06/06 08:56:22;;;;;;;18.92;9.93;;;;;;;17.88;71.72;101991.91;5032338;28;20374;-70
2023/06/06 08:58:49;;;;;;;13.85;9.70;;;;;;;18.02;70.40;101989.66;5031546;28;20025;-70
2023/06/06 09:01:17;;;;;;;17.40;9.48;;;;;;;18.15;69.62;101971.59;5032397;28;20033;-69
2023/06/06 09:03:43;;;;;;;14.55;9.35;;;;;;;18.41;69.53;101987.28;5031869;28;20014;-70
2023/06/06 09:06:11;;;;;;;18.15;9.27;;;;;;;18.57;69.16;101981.41;5034960;28;20040;-73
2023/06/06 09:08:38;;;;;;;16.10;9.88;;;;;;;18.73;69.61;101992.28;5030601;28;20056;-73
2023/06/06 09:11:03;;;;;;;13.52;9.23;;;;;;;18.81;69.55;101980.50;5032069;28;20033;-73
2023/06/06 09:13:29;;;;;;;13.52;9.35;;;;;;;18.96;66.54;101979.00;5031264;28;20032;-73
2023/06/06 09:15:54;;;;;;;16.67;8.90;;;;;;;18.98;67.64;101971.88;5033636;28;20037;-72
2023/06/06 09:18:19;;;;;;;13.00;9.13;;;;;;;19.14;65.09;101983.53;5031420;28;20025;-70
2023/06/06 09:20:51;;;;;;;14.13;9.27;;;;;;;19.29;64.02;101978.53;5030024;28;20026;-70
2023/06/06 09:23:17;;;;;;;14.70;9.75;;;;;;;19.26;62.28;101981.28;5031743;28;20503;-70
2023/06/06 09:25:47;;;;;;;14.52;9.10;;;;;;;19.16;64.44;101976.41;5031234;28;20057;-70
2023/06/06 09:28:13;;;;;;;13.65;9.60;;;;;;;19.23;64.87;101982.31;5031541;28;20021;-70
2023/06/06 09:30:38;;;;;;;15.05;10.20;;;;;;;19.34;65.30;101973.91;5031842;28;20040;-70
2023/06/06 09:33:04;;;;;;;14.25;9.07;;;;;;;19.61;64.77;101971.88;5031871;28;20018;-70
2023/06/06 09:35:37;;;;;;;15.05;9.13;;;;;;;19.71;62.26;101972.38;5031563;28;20033;-70
2023/06/06 09:38:08;;;;;;;11.65;8.95;;;;;;;19.83;61.49;101967.41;5031619;28;20025;-70
2023/06/06 09:40:50;;;;;;;15.27;8.40;;;;;;;20.00;62.82;101973.72;5031579;28;20018;-70
2023/06/06 09:43:15;;;;;;;13.80;8.70;;;;;;;20.09;62.20;101962.72;5024213;28;20041;-70
2023/06/06 09:46:04;;;;;;;12.10;8.85;;;;;;;20.21;60.75;101959.50;5031776;28;20029;-69
2023/06/06 09:48:29;;;;;;;14.70;8.88;;;;;;;20.32;61.68;101959.00;5030808;28;20037;-70
2023/06/06 09:50:55;;;;;;;10.35;8.38;;;;;;;20.60;63.65;101965.66;5031739;28;20120;-70
2023/06/06 09:53:28;;;;;;;11.40;8.40;;;;;;;20.71;60.21;101972.19;5031685;28;20543;-70
2023/06/06 09:55:57;;;;;;;12.05;9.10;;;;;;;20.60;56.24;101968.31;5030841;28;20064;-70
2023/06/06 09:58:26;;;;;;;12.70;8.35;;;;;;;20.68;58.96;101963.53;5031907;28;20022;-70
2023/06/06 10:00:57;;;;;;;12.82;8.95;;;;;;;20.74;58.06;101961.44;5030817;28;20476;-70
2023/06/06 10:03:23;;;;;;;11.90;8.95;;;;;;;20.95;62.48;101943.63;5031645;28;20038;-70
2023/06/06 10:05:49;;;;;;;14.73;9.07;;;;;;;21.09;57.44;101953.56;5031767;28;20075;-70
2023/06/06 10:08:17;;;;;;;13.60;8.70;;;;;;;21.11;56.21;101946.38;5031310;28;20071;-70
2023/06/06 10:10:45;;;;;;;13.90;8.80;;;;;;;21.32;58.72;101948.84;5023116;28;20029;-70
2023/06/06 10:13:12;;;;;;;14.10;8.68;;;;;;;21.44;55.95;101950.94;5031718;28;20030;-69
2023/06/06 10:15:38;;;;;;;15.18;9.20;;;;;;;21.50;53.77;101955.91;5030824;28;20470;-69
2023/06/06 10:18:04;;;;;;;13.70;9.07;;;;;;;21.41;53.96;101953.72;5031520;28;20057;-69
2023/06/06 10:20:30;;;;;;;13.18;8.00;;;;;;;21.43;56.38;101949.22;5031730;28;20119;-69
2023/06/06 10:22:57;;;;;;;12.13;7.72;;;;;;;21.67;58.93;101944.41;5031031;28;20036;-69
2023/06/06 10:25:23;;;;;;;14.15;8.63;;;;;;;21.74;53.91;101949.34;5031226;28;20115;-69
2023/06/06 10:28:38;;;;;;;10.65;8.13;;;;;;;21.90;54.35;101949.34;5031430;28;20108;-69
2023/06/06 10:31:15;;;;;;;14.93;8.10;;;;;;;21.93;54.62;101951.84;5013987;28;20081;-69
2023/06/06 10:34:10;;;;;;;12.55;8.05;;;;;;;22.17;54.95;101948.84;5032907;28;20030;-69
2023/06/06 10:36:40;;;;;;;13.00;9.02;;;;;;;22.19;53.81;101941.66;5027960;28;20044;-69
2023/06/06 10:39:17;;;;;;;16.50;8.85;;;;;;;22.29;52.53;101947.31;5034786;28;20037;-69
2023/06/06 10:41:59;;;;;;;12.18;7.68;;;;;;;22.37;54.91;101953.06;5034865;28;20033;-69
2023/06/06 10:44:26;;;;;;;14.75;8.70;;;;;;;22.43;52.22;101939.41;5027423;28;20021;-69
2023/06/06 10:46:51;;;;;;;11.70;8.00;;;;;;;22.54;50.25;101941.50;5034600;28;20238;-69
2023/06/06 10:49:16;;;;;;;9.93;6.93;;;;;;;22.63;52.27;101939.19;5034401;28;20052;-69
2023/06/06 10:51:42;;;;;;;12.93;8.15;;;;;;;22.81;52.59;101925.75;5033695;28;20033;-69
2023/06/06 10:54:16;;;;;;;11.30;7.68;;;;;;;23.14;52.48;101939.78;5034546;28;20032;-69
2023/06/06 10:56:55;;;;;;;15.65;7.53;;;;;;;23.39;52.93;101940.13;5034620;28;20029;-69
2023/06/06 10:59:25;;;;;;;13.82;7.90;;;;;;;23.45;50.61;101942.44;5034017;28;20021;-69
2023/06/06 11:01:52;;;;;;;11.70;7.50;;;;;;;23.56;47.53;101927.50;5034531;28;20026;-69
2023/06/06 11:04:25;;;;;;;11.38;7.47;;;;;;;23.55;48.75;101922.28;5033950;28;20109;-69
2023/06/06 11:06:51;;;;;;;;;;;;;;;23.56;48.60;101924.84;5034285;28;20362;-69
2023/06/06 11:09:22;;;;;;;13.00;7.32;;;;;;;23.54;50.48;101929.44;5034322;28;19920;-69
2023/06/06 11:11:48;;;;;;;10.27;7.57;;;;;;;23.52;47.01;101920.66;5032630;28;20037;-69
2023/06/06 11:14:18;;;;;;;13.45;7.40;;;;;;;23.62;48.87;101917.44;5034445;28;20104;-69